createdAt,value
2018-11-04T00:01:04.837Z,3.73
2018-11-04T00:03:33.197Z,2.07
2018-11-04T00:06:01.632Z,3.07
2018-11-04T00:08:30.099Z,4.10
2018-11-04T00:10:58.470Z,3.50
2018-11-04T00:13:27.039Z,4.63
2018-11-04T00:15:55.538Z,7.40
2018-11-04T00:18:23.884Z,3.10
2018-11-04T00:20:52.263Z,4.50
2018-11-04T00:23:20.817Z,3.97
2018-11-04T00:25:49.292Z,2.60
2018-11-04T00:28:18.208Z,3.07
2018-11-04T00:30:46.559Z,2.60
2018-11-04T00:33:14.915Z,5.33
2018-11-04T00:35:43.410Z,4.87
2018-11-04T00:38:12.047Z,4.07
2018-11-04T00:40:40.501Z,4.53
2018-11-04T00:43:08.947Z,4.93
2018-11-04T00:45:37.370Z,5.00
2018-11-04T00:48:06.360Z,6.00
2018-11-04T00:50:35.089Z,6.03
2018-11-04T00:53:03.451Z,4.70
2018-11-04T00:55:31.919Z,4.83
2018-11-04T00:58:00.418Z,4.37
2018-11-04T01:00:28.914Z,6.23
2018-11-04T01:02:57.315Z,3.57
2018-11-04T01:05:25.854Z,4.60
2018-11-04T01:07:54.568Z,5.47
2018-11-04T01:10:24.366Z,5.87
2018-11-04T01:12:52.848Z,3.03
2018-11-04T01:15:21.336Z,3.07
2018-11-04T01:17:49.903Z,3.77
2018-11-04T01:20:18.338Z,4.23
2018-11-04T01:22:46.800Z,4.57
2018-11-04T01:25:15.694Z,2.93
2018-11-04T01:27:44.284Z,6.23
2018-11-04T01:30:14.361Z,4.77
2018-11-04T01:32:42.998Z,4.50
2018-11-04T01:35:11.530Z,5.07
2018-11-04T01:37:40.451Z,5.47
2018-11-04T01:40:09.562Z,4.47
2018-11-04T01:42:38.231Z,3.50
2018-11-04T01:45:08.420Z,5.13
2018-11-04T01:47:36.913Z,5.83
2018-11-04T01:50:07.133Z,3.90
2018-11-04T01:52:35.646Z,4.40
2018-11-04T01:55:04.172Z,3.97
2018-11-04T01:57:32.469Z,4.53
2018-11-04T02:00:00.850Z,5.47
2018-11-04T02:02:29.324Z,4.03
2018-11-04T02:04:57.794Z,7.23
2018-11-04T02:07:26.262Z,4.73
2018-11-04T02:09:54.706Z,7.60
2018-11-04T02:12:23.408Z,6.17
2018-11-04T02:14:51.852Z,3.67
2018-11-04T02:17:20.590Z,4.87
2018-11-04T02:19:49.299Z,5.17
2018-11-04T02:22:18.059Z,6.40
2018-11-04T02:24:46.487Z,4.63
2018-11-04T02:27:14.955Z,7.57
2018-11-04T02:29:43.613Z,5.40
2018-11-04T02:32:12.080Z,4.33
2018-11-04T02:34:40.570Z,4.90
2018-11-04T02:37:09.200Z,9.70
2018-11-04T02:39:37.770Z,4.97
2018-11-04T02:42:06.298Z,7.37
2018-11-04T02:44:34.706Z,5.87
2018-11-04T02:47:03.225Z,5.93
2018-11-04T02:49:31.933Z,10.97
2018-11-04T02:52:00.354Z,6.60
2018-11-04T02:54:28.766Z,7.00
2018-11-04T02:56:57.294Z,7.67
2018-11-04T02:59:25.886Z,4.83
2018-11-04T03:01:54.648Z,8.23
2018-11-04T03:04:22.977Z,8.03
2018-11-04T03:06:51.352Z,6.67
2018-11-04T03:09:19.808Z,7.87
2018-11-04T03:11:48.192Z,6.00
2018-11-04T03:14:16.538Z,7.40
2018-11-04T03:16:44.949Z,7.07
2018-11-04T03:19:13.612Z,7.03
2018-11-04T03:21:42.039Z,7.73
2018-11-04T03:24:10.595Z,5.73
2018-11-04T03:26:39.061Z,6.83
2018-11-04T03:29:07.477Z,7.73
2018-11-04T03:31:36.030Z,5.80
2018-11-04T03:34:04.670Z,5.17
2018-11-04T03:36:33.385Z,10.53
2018-11-04T03:39:01.782Z,6.57
2018-11-04T03:41:30.306Z,9.37
2018-11-04T03:43:58.647Z,8.17
2018-11-04T03:46:27.371Z,7.77
2018-11-04T03:48:56.215Z,6.80
2018-11-04T03:51:24.662Z,4.53
2018-11-04T03:53:53.063Z,8.97
2018-11-04T03:56:21.550Z,7.90
2018-11-04T03:58:50.113Z,6.13
2018-11-04T04:01:18.515Z,5.70
2018-11-04T04:03:47.077Z,6.10
2018-11-04T04:06:15.796Z,5.13
2018-11-04T04:08:44.249Z,7.70
2018-11-04T04:11:13.986Z,5.00
2018-11-04T04:13:42.351Z,6.37
2018-11-04T04:16:10.747Z,5.50
2018-11-04T04:18:39.163Z,5.27
2018-11-04T04:21:08.485Z,4.13
2018-11-04T04:23:37.684Z,5.97
2018-11-04T04:26:06.615Z,6.13
2018-11-04T04:28:35.448Z,5.10
2018-11-04T04:31:03.969Z,4.03
2018-11-04T04:33:32.367Z,4.47
2018-11-04T04:36:00.983Z,5.70
2018-11-04T04:38:29.360Z,4.93
2018-11-04T04:40:57.759Z,6.40
2018-11-04T04:43:26.210Z,6.07
2018-11-04T04:45:55.181Z,10.00
2018-11-04T04:48:23.677Z,5.10
2018-11-04T04:50:52.095Z,4.47
2018-11-04T04:53:23.310Z,9.37
2018-11-04T04:55:52.287Z,7.23
2018-11-04T04:58:21.052Z,9.03
2018-11-04T05:00:49.590Z,6.03
2018-11-04T05:03:18.023Z,5.83
2018-11-04T05:05:46.798Z,5.37
2018-11-04T05:08:15.178Z,4.73
2018-11-04T05:10:43.636Z,4.77
2018-11-04T05:13:12.331Z,5.30
2018-11-04T05:15:41.111Z,8.97
2018-11-04T05:18:09.830Z,8.13
2018-11-04T05:20:38.234Z,4.77
2018-11-04T05:23:06.836Z,4.60
2018-11-04T05:25:35.334Z,4.83
2018-11-04T05:28:03.784Z,4.93
2018-11-04T05:30:32.147Z,5.27
2018-11-04T05:33:00.566Z,3.53
2018-11-04T05:35:28.985Z,4.83
2018-11-04T05:37:57.533Z,4.57
2018-11-04T05:40:26.108Z,6.93
2018-11-04T05:42:54.611Z,6.57
2018-11-04T05:45:24.310Z,4.83
2018-11-04T05:47:52.763Z,5.13
2018-11-04T05:50:21.240Z,4.67
2018-11-04T05:52:50.008Z,6.20
2018-11-04T05:55:18.545Z,3.67
2018-11-04T05:57:46.885Z,4.20
2018-11-04T06:00:15.656Z,4.13
2018-11-04T06:02:44.224Z,6.53
2018-11-04T06:05:12.765Z,5.03
2018-11-04T06:07:41.220Z,4.40
2018-11-04T06:10:09.679Z,4.53
2018-11-04T06:12:38.227Z,4.70
2018-11-04T06:15:07.499Z,6.83
2018-11-04T06:17:36.051Z,5.87
2018-11-04T06:20:04.770Z,8.00
2018-11-04T06:22:33.228Z,5.30
2018-11-04T06:25:01.636Z,7.17
2018-11-04T06:27:30.157Z,5.53
2018-11-04T06:29:58.535Z,6.57
2018-11-04T06:32:26.888Z,5.70
2018-11-04T06:34:55.339Z,7.40
2018-11-04T06:37:23.817Z,6.33
2018-11-04T06:39:52.237Z,5.87
2018-11-04T06:42:20.715Z,6.27
2018-11-04T06:44:49.196Z,10.40
2018-11-04T06:47:17.996Z,6.47
2018-11-04T06:49:46.494Z,6.33
2018-11-04T06:52:15.012Z,7.57
2018-11-04T06:54:43.316Z,6.17
2018-11-04T06:57:12.170Z,6.00
2018-11-04T06:59:40.909Z,5.97
2018-11-04T07:02:09.646Z,7.30
2018-11-04T07:04:38.071Z,7.73
2018-11-04T07:07:06.504Z,6.20
2018-11-04T07:09:34.997Z,5.23
2018-11-04T07:12:03.858Z,7.63
2018-11-04T07:14:37.777Z,5.17
2018-11-04T07:17:06.172Z,5.27
2018-11-04T07:19:34.584Z,11.13
2018-11-04T07:22:03.085Z,5.00
2018-11-04T07:24:31.507Z,10.27
2018-11-04T07:26:59.959Z,6.77
2018-11-04T07:29:28.363Z,4.67
2018-11-04T07:31:56.864Z,6.53
2018-11-04T07:34:25.323Z,5.30
2018-11-04T07:36:54.154Z,6.57
2018-11-04T07:39:22.966Z,8.30
2018-11-04T07:41:51.541Z,6.27
2018-11-04T07:44:20.105Z,6.47
2018-11-04T07:46:48.504Z,8.27
2018-11-04T07:49:16.907Z,5.87
2018-11-04T07:51:45.331Z,5.53
2018-11-04T07:54:13.778Z,5.03
2018-11-04T07:56:42.357Z,6.80
2018-11-04T07:59:10.773Z,5.53
2018-11-04T08:01:39.154Z,6.77
2018-11-04T08:04:07.556Z,5.17
2018-11-04T08:06:35.985Z,7.00
2018-11-04T08:09:06.223Z,6.53
2018-11-04T08:11:34.699Z,5.67
2018-11-04T08:14:15.231Z,5.50
2018-11-04T08:16:43.972Z,6.33
2018-11-04T08:19:12.477Z,5.00
2018-11-04T08:21:40.851Z,7.10
2018-11-04T08:24:09.235Z,6.27
2018-11-04T08:26:37.651Z,4.73
2018-11-04T08:29:06.186Z,6.37
2018-11-04T08:31:34.616Z,3.87
2018-11-04T08:34:02.960Z,352.27
2018-11-04T08:36:31.748Z,160.17
2018-11-04T08:39:00.416Z,68.40
2018-11-04T08:41:28.764Z,36.83
2018-11-04T08:43:57.203Z,17.07
2018-11-04T08:46:25.601Z,12.47
2018-11-04T08:48:54.024Z,9.07
2018-11-04T08:51:22.797Z,6.67
2018-11-04T08:53:51.119Z,9.70
2018-11-04T08:56:19.501Z,31.93
2018-11-04T08:58:47.798Z,41.57
2018-11-04T09:01:16.184Z,37.53
2018-11-04T09:03:44.667Z,25.43
2018-11-04T09:06:13.155Z,14.43
2018-11-04T09:08:41.615Z,269.17
2018-11-04T09:11:11.354Z,1137.60
2018-11-04T09:13:40.003Z,688.07
2018-11-04T09:16:08.487Z,543.03
2018-11-04T09:18:36.927Z,486.37
2018-11-04T09:21:05.534Z,256.50
2018-11-04T09:23:34.194Z,263.50
2018-11-04T09:26:02.753Z,171.97
2018-11-04T09:28:31.187Z,60.43
2018-11-04T09:30:59.628Z,71.50
2018-11-04T09:33:28.139Z,56.23
2018-11-04T09:35:56.906Z,43.80
2018-11-04T09:38:25.238Z,47.17
2018-11-04T09:40:53.843Z,47.53
2018-11-04T09:43:22.599Z,30.80
2018-11-04T09:45:51.163Z,26.60
2018-11-04T09:48:19.712Z,23.87
2018-11-04T09:50:48.362Z,14.87
2018-11-04T09:53:17.037Z,14.87
2018-11-04T09:55:45.802Z,17.63
2018-11-04T09:58:14.587Z,9.30
2018-11-04T10:00:43.597Z,7.67
2018-11-04T10:03:12.717Z,8.87
2018-11-04T10:05:41.794Z,9.37
2018-11-04T10:08:10.858Z,6.40
2018-11-04T10:10:39.707Z,5.80
2018-11-04T10:13:08.750Z,6.17
2018-11-04T10:15:37.652Z,6.13
2018-11-04T10:18:06.680Z,7.27
2018-11-04T10:20:35.901Z,7.67
2018-11-04T10:23:04.815Z,6.63
2018-11-04T10:25:33.728Z,10.30
2018-11-04T10:28:02.837Z,10.60
2018-11-04T10:30:32.164Z,7.10
2018-11-04T10:33:01.095Z,7.13
2018-11-04T10:35:30.259Z,8.70
2018-11-04T10:37:59.252Z,9.60
2018-11-04T10:40:28.332Z,10.73
2018-11-04T10:42:57.413Z,11.50
2018-11-04T10:45:27.374Z,11.27
2018-11-04T10:47:57.079Z,12.83
2018-11-04T10:50:27.010Z,14.47
2018-11-04T10:52:56.124Z,15.23
2018-11-04T10:55:26.332Z,19.47
2018-11-04T10:57:55.485Z,29.77
2018-11-04T11:00:30.876Z,36.13
2018-11-04T11:03:00.971Z,39.77
2018-11-04T11:05:30.132Z,39.47
2018-11-04T11:07:59.360Z,30.53
2018-11-04T11:10:28.650Z,27.83
2018-11-04T11:12:58.557Z,23.20
2018-11-04T11:15:28.999Z,20.57
2018-11-04T11:17:58.851Z,18.57
2018-11-04T11:20:28.090Z,18.77
2018-11-04T11:22:57.532Z,15.30
2018-11-04T11:25:27.816Z,14.77
2018-11-04T11:27:57.048Z,18.90
2018-11-04T11:30:27.278Z,15.03
2018-11-04T11:32:57.017Z,10.77
2018-11-04T11:35:27.857Z,9.93
2018-11-04T11:37:57.840Z,11.67
2018-11-04T11:40:28.630Z,9.57
2018-11-04T11:42:58.295Z,12.20
2018-11-04T11:45:28.083Z,8.20
2018-11-04T11:47:57.886Z,8.53
2018-11-04T11:50:27.928Z,8.43
2018-11-04T11:52:57.684Z,8.20
2018-11-04T11:55:28.816Z,9.97
2018-11-04T11:57:58.072Z,12.57
2018-11-04T12:00:28.287Z,9.17
2018-11-04T12:02:57.423Z,13.10
2018-11-04T12:05:28.012Z,12.10
2018-11-04T12:07:57.225Z,8.13
2018-11-04T12:10:27.270Z,9.80
2018-11-04T12:12:56.498Z,6.33
2018-11-04T12:15:37.658Z,6.87
2018-11-04T12:18:07.759Z,10.07
2018-11-04T12:20:37.011Z,11.97
2018-11-04T12:23:06.296Z,11.50
2018-11-04T12:25:35.451Z,19.80
2018-11-04T12:28:04.589Z,19.97
2018-11-04T12:30:33.764Z,14.93
2018-11-04T12:33:02.901Z,10.67
2018-11-04T12:35:32.935Z,12.10
2018-11-04T12:38:03.533Z,8.90
2018-11-04T12:40:32.867Z,13.13
2018-11-04T12:43:02.951Z,13.67
2018-11-04T12:45:32.122Z,13.57
2018-11-04T12:48:01.260Z,13.50
2018-11-04T12:50:30.447Z,10.03
2018-11-04T12:52:59.685Z,6.47
2018-11-04T12:55:28.944Z,6.67
2018-11-04T12:57:58.786Z,3.70
2018-11-04T13:00:27.970Z,4.70
2018-11-04T13:02:57.204Z,4.33
2018-11-04T13:05:28.216Z,6.17
2018-11-04T13:07:58.100Z,6.27
2018-11-04T13:10:28.461Z,4.73
2018-11-04T13:12:57.709Z,5.43
2018-11-04T13:15:48.943Z,3.00
2018-11-04T13:18:18.209Z,5.70
2018-11-04T13:20:47.438Z,8.67
2018-11-04T13:23:16.572Z,5.80
2018-11-04T13:25:45.937Z,6.67
2018-11-04T13:28:15.238Z,6.23
2018-11-04T13:30:44.498Z,7.93
2018-11-04T13:33:14.860Z,5.10
2018-11-04T13:35:44.734Z,8.97
2018-11-04T13:38:14.751Z,4.53
2018-11-04T13:40:44.080Z,4.63
2018-11-04T13:43:13.330Z,7.07
2018-11-04T13:45:42.623Z,8.43
2018-11-04T13:48:11.834Z,4.53
2018-11-04T13:50:41.113Z,7.30
2018-11-04T13:53:10.373Z,7.07
2018-11-04T13:55:39.589Z,4.63
2018-11-04T13:58:08.827Z,6.43
2018-11-04T14:00:38.050Z,6.20
2018-11-04T14:03:07.347Z,8.00
2018-11-04T14:05:36.883Z,8.93
2018-11-04T14:08:06.144Z,6.03
2018-11-04T14:10:35.461Z,7.27
2018-11-04T14:13:06.019Z,7.90
2018-11-04T14:16:02.094Z,8.27
2018-11-04T14:18:31.421Z,12.33
2018-11-04T14:21:01.703Z,8.23
2018-11-04T14:23:31.622Z,10.37
2018-11-04T14:26:01.680Z,7.57
2018-11-04T14:28:30.915Z,8.53
2018-11-04T14:31:00.188Z,6.17
2018-11-04T14:33:29.455Z,7.67
2018-11-04T14:35:59.590Z,8.00
2018-11-04T14:38:29.248Z,5.70
2018-11-04T14:40:58.424Z,8.83
2018-11-04T14:43:27.652Z,11.83
2018-11-04T14:45:57.781Z,24.67
2018-11-04T14:48:27.139Z,47.50
2018-11-04T14:50:56.979Z,41.60
2018-11-04T14:53:26.162Z,30.77
2018-11-04T14:55:57.635Z,28.53
2018-11-04T14:58:26.915Z,36.40
2018-11-04T15:00:56.165Z,28.40
2018-11-04T15:03:25.402Z,21.83
2018-11-04T15:05:54.638Z,15.70
2018-11-04T15:08:23.802Z,13.40
2018-11-04T15:10:52.959Z,12.33
2018-11-04T15:13:22.221Z,9.83
2018-11-04T15:16:13.099Z,7.00
2018-11-04T15:18:42.417Z,9.30
2018-11-04T15:21:12.246Z,12.00
2018-11-04T15:23:41.350Z,9.70
2018-11-04T15:26:11.477Z,10.07
2018-11-04T15:28:40.889Z,7.83
2018-11-04T15:31:10.087Z,12.90
2018-11-04T15:33:39.360Z,12.67
2018-11-04T15:36:08.845Z,11.37
2018-11-04T15:38:39.002Z,10.23
2018-11-04T15:41:08.915Z,12.10
2018-11-04T15:43:38.155Z,8.97
2018-11-04T15:46:07.363Z,8.53
2018-11-04T15:48:36.568Z,11.70
2018-11-04T15:51:05.918Z,11.77
2018-11-04T15:53:35.128Z,10.63
2018-11-04T15:56:05.182Z,12.37
2018-11-04T15:58:35.994Z,10.03
2018-11-04T16:01:05.451Z,14.27
2018-11-04T16:03:34.668Z,14.57
2018-11-04T16:06:04.825Z,12.53
2018-11-04T16:08:34.958Z,13.67
2018-11-04T16:11:11.036Z,13.47
2018-11-04T16:13:40.615Z,16.70
2018-11-04T16:16:27.744Z,10.00
2018-11-04T16:18:58.755Z,7.07
2018-11-04T16:21:28.761Z,8.63
2018-11-04T16:23:57.979Z,7.47
2018-11-04T16:26:27.260Z,8.33
2018-11-04T16:28:56.484Z,11.50
2018-11-04T16:31:25.837Z,13.17
2018-11-04T16:33:55.920Z,10.63
2018-11-04T16:36:26.990Z,9.53
2018-11-04T16:38:56.244Z,10.93
2018-11-04T16:41:25.498Z,8.03
2018-11-04T16:43:56.396Z,13.70
2018-11-04T16:46:25.622Z,10.50
2018-11-04T16:48:54.871Z,12.73
2018-11-04T16:51:24.094Z,17.27
2018-11-04T16:53:54.336Z,19.43
2018-11-04T16:56:23.525Z,21.73
2018-11-04T16:58:52.843Z,16.03
2018-11-04T17:01:22.206Z,15.67
2018-11-04T17:03:51.503Z,15.20
2018-11-04T17:06:22.493Z,14.60
2018-11-04T17:08:53.411Z,12.30
2018-11-04T17:11:22.751Z,11.43
2018-11-04T17:13:51.969Z,8.97
2018-11-04T17:16:37.209Z,8.40
2018-11-04T17:19:07.650Z,9.50
2018-11-04T17:21:37.658Z,8.97
2018-11-04T17:24:06.996Z,7.17
2018-11-04T17:26:38.126Z,8.03
2018-11-04T17:29:08.448Z,7.97
2018-11-04T17:31:38.434Z,8.57
2018-11-04T17:34:08.748Z,6.60
2018-11-04T17:36:38.045Z,8.13
2018-11-04T17:39:10.278Z,6.93
2018-11-04T17:41:39.791Z,6.90
2018-11-04T17:44:10.180Z,8.30
2018-11-04T17:46:39.911Z,7.20
2018-11-04T17:49:10.126Z,8.87
2018-11-04T17:51:39.417Z,10.13
2018-11-04T17:54:08.821Z,7.27
2018-11-04T17:56:38.090Z,7.10
2018-11-04T17:59:07.332Z,12.47
2018-11-04T18:01:38.142Z,10.33
2018-11-04T18:04:07.339Z,8.40
2018-11-04T18:06:36.572Z,7.80
2018-11-04T18:09:08.343Z,9.57
2018-11-04T18:11:37.622Z,6.77
2018-11-04T18:14:11.653Z,7.10
2018-11-04T18:16:41.893Z,6.50
2018-11-04T18:19:12.130Z,5.80
2018-11-04T18:21:42.274Z,8.33
2018-11-04T18:24:11.599Z,9.43
2018-11-04T18:26:42.415Z,10.40
2018-11-04T18:29:11.649Z,9.73
2018-11-04T18:31:40.895Z,7.97
2018-11-04T18:34:10.727Z,12.07
2018-11-04T18:36:39.978Z,13.83
2018-11-04T18:39:09.886Z,13.20
2018-11-04T18:41:39.479Z,14.87
2018-11-04T18:44:09.077Z,26.83
2018-11-04T18:46:39.381Z,37.93
2018-11-04T18:49:08.886Z,34.23
2018-11-04T18:51:38.147Z,24.90
2018-11-04T18:54:08.353Z,17.83
2018-11-04T18:56:37.647Z,15.03
2018-11-04T18:59:07.535Z,15.33
2018-11-04T19:01:37.652Z,13.40
2018-11-04T19:04:08.402Z,8.70
2018-11-04T19:06:38.381Z,6.37
2018-11-04T19:09:08.830Z,7.40
2018-11-04T19:11:39.148Z,9.00
2018-11-04T19:14:19.737Z,9.77
2018-11-04T19:16:49.805Z,8.57
2018-11-04T19:19:19.077Z,7.60
2018-11-04T19:21:48.412Z,7.23
2018-11-04T19:24:17.707Z,7.07
2018-11-04T19:26:47.420Z,7.37
2018-11-04T19:29:18.472Z,6.37
2018-11-04T19:31:47.804Z,9.80
2018-11-04T19:34:18.400Z,6.07
2018-11-04T19:36:47.663Z,10.97
2018-11-04T19:39:17.650Z,8.60
2018-11-04T19:41:47.102Z,9.33
2018-11-04T19:44:16.367Z,7.97
2018-11-04T19:46:46.623Z,7.93
2018-11-04T19:49:15.899Z,10.53
2018-11-04T19:51:45.282Z,13.43
2018-11-04T19:54:14.790Z,8.67
2018-11-04T19:56:44.135Z,8.03
2018-11-04T19:59:13.467Z,7.47
2018-11-04T20:01:42.761Z,6.77
2018-11-04T20:04:12.799Z,7.37
2018-11-04T20:06:42.104Z,6.23
2018-11-04T20:09:15.465Z,8.07
2018-11-04T20:11:45.231Z,9.10
2018-11-04T20:14:40.731Z,9.93
2018-11-04T20:17:10.033Z,9.17
2018-11-04T20:19:44.561Z,9.67
2018-11-04T20:22:15.065Z,9.40
2018-11-04T20:24:49.572Z,10.23
2018-11-04T20:27:18.890Z,12.23
2018-11-04T20:29:48.193Z,11.57
2018-11-04T20:32:22.422Z,12.80
2018-11-04T20:34:52.491Z,13.60
2018-11-04T20:37:21.923Z,12.33
2018-11-04T20:39:56.386Z,11.53
2018-11-04T20:42:25.639Z,10.23
2018-11-04T20:44:54.875Z,15.17
2018-11-04T20:47:29.286Z,8.13
2018-11-04T20:50:03.617Z,7.90
2018-11-04T20:52:32.911Z,7.20
2018-11-04T20:55:02.232Z,5.87
2018-11-04T20:57:39.444Z,9.13
2018-11-04T21:00:12.183Z,4.70
2018-11-04T21:02:41.911Z,3.77
2018-11-04T21:05:12.079Z,5.47
2018-11-04T21:07:42.120Z,6.13
2018-11-04T21:10:12.156Z,7.80
2018-11-04T21:12:41.471Z,4.47
2018-11-04T21:19:20.376Z,3.37
2018-11-04T21:21:49.583Z,5.57
2018-11-04T21:24:18.816Z,5.37
2018-11-04T21:27:39.011Z,8.10
2018-11-04T21:30:10.885Z,6.57
2018-11-04T21:32:41.189Z,6.67
2018-11-04T21:35:10.485Z,7.13
2018-11-04T21:37:39.789Z,4.53
2018-11-04T21:40:10.572Z,5.13
2018-11-04T21:42:40.065Z,8.73
2018-11-04T21:45:11.663Z,6.13
2018-11-04T21:47:41.074Z,6.10
2018-11-04T21:50:11.324Z,4.43
2018-11-04T21:52:40.607Z,4.90
2018-11-04T21:55:12.833Z,5.43
2018-11-04T21:57:42.962Z,5.73
2018-11-04T22:00:13.788Z,4.67
2018-11-04T22:02:43.213Z,4.30
2018-11-04T22:05:12.664Z,3.73
2018-11-04T22:07:42.853Z,4.23
2018-11-04T22:10:14.646Z,4.73
2018-11-04T22:12:44.148Z,3.23
2018-11-04T22:18:37.933Z,3.37
2018-11-04T22:21:12.886Z,5.27
2018-11-04T22:23:42.049Z,2.57
2018-11-04T22:26:11.892Z,2.93
2018-11-04T22:28:40.999Z,3.70
2018-11-04T22:31:11.209Z,2.53
2018-11-04T22:33:41.933Z,1.90
2018-11-04T22:36:12.165Z,3.73
2018-11-04T22:38:50.288Z,1.63
2018-11-04T22:41:19.618Z,3.87
2018-11-04T22:43:49.579Z,2.20
2018-11-04T22:46:18.491Z,1.73
2018-11-04T22:48:47.366Z,2.60
2018-11-04T22:51:16.113Z,1.47
2018-11-04T22:53:45.301Z,4.10
2018-11-04T22:56:13.947Z,4.20
2018-11-04T22:58:42.367Z,1.97
2018-11-04T23:01:11.987Z,1.40
2018-11-04T23:03:40.769Z,1.30
2018-11-04T23:06:10.212Z,2.00
2018-11-04T23:08:38.857Z,2.10
2018-11-04T23:11:08.939Z,1.50
2018-11-04T23:13:37.522Z,1.43
2018-11-04T23:16:06.925Z,2.23
2018-11-04T23:18:35.830Z,0.93
2018-11-04T23:21:04.659Z,0.80
2018-11-04T23:23:33.139Z,2.10
2018-11-04T23:26:01.540Z,1.00
2018-11-04T23:28:30.017Z,4.30
2018-11-04T23:30:58.735Z,2.67
2018-11-04T23:33:27.684Z,3.13
2018-11-04T23:35:56.149Z,2.50
2018-11-04T23:38:24.595Z,1.97
2018-11-04T23:40:53.059Z,4.60
2018-11-04T23:43:21.939Z,3.50
2018-11-04T23:45:51.550Z,0.97
2018-11-04T23:48:19.882Z,1.77
2018-11-04T23:50:48.267Z,2.37
2018-11-04T23:53:16.608Z,1.60
2018-11-04T23:55:44.896Z,2.67
2018-11-04T23:58:13.211Z,2.93
